sensor_id;sensor_type;location;lat;lon;timestamp;pressure;altitude;pressure_sealevel;temperature;humidity
5812;BME280;2932;52.400;9.558;2022-10-30T00:02:00;101089.78;;;21.17;62.93
5812;BME280;2932;52.400;9.558;2022-10-30T00:04:26;101092.91;;;21.44;62.04
5812;BME280;2932;52.400;9.558;2022-10-30T00:06:51;101080.94;;;21.12;62.80
5812;BME280;2932;52.400;9.558;2022-10-30T00:09:19;101081.75;;;21.16;62.74
5812;BME280;2932;52.400;9.558;2022-10-30T00:11:45;101079.31;;;21.21;62.91
5812;BME280;2932;52.400;9.558;2022-10-30T00:14:10;101062.03;;;21.23;63.02
5812;BME280;2932;52.400;9.558;2022-10-30T00:16:35;101087.38;;;21.16;62.84
5812;BME280;2932;52.400;9.558;2022-10-30T00:19:01;101089.44;;;20.87;63.72
5812;BME280;2932;52.400;9.558;2022-10-30T00:21:26;101079.78;;;20.91;63.84
5812;BME280;2932;52.400;9.558;2022-10-30T00:23:52;101072.53;;;21.01;63.43
5812;BME280;2932;52.400;9.558;2022-10-30T00:26:20;101067.28;;;21.10;63.40
5812;BME280;2932;52.400;9.558;2022-10-30T00:28:49;101078.53;;;21.10;63.35
5812;BME280;2932;52.400;9.558;2022-10-30T00:31:15;101075.75;;;21.07;62.97
5812;BME280;2932;52.400;9.558;2022-10-30T00:33:40;101078.56;;;21.07;63.60
5812;BME280;2932;52.400;9.558;2022-10-30T00:36:05;101080.56;;;21.03;64.22
5812;BME280;2932;52.400;9.558;2022-10-30T00:38:31;101076.56;;;21.00;64.23
5812;BME280;2932;52.400;9.558;2022-10-30T00:40:57;101079.38;;;21.04;63.92
5812;BME280;2932;52.400;9.558;2022-10-30T00:43:40;101084.88;;;21.39;63.03
5812;BME280;2932;52.400;9.558;2022-10-30T00:46:32;101073.22;;;21.44;62.58
5812;BME280;2932;52.400;9.558;2022-10-30T00:49:09;101071.66;;;21.25;63.23
5812;BME280;2932;52.400;9.558;2022-10-30T00:51:38;101062.50;;;21.00;63.46
5812;BME280;2932;52.400;9.558;2022-10-30T00:54:06;101073.34;;;20.94;63.42
5812;BME280;2932;52.400;9.558;2022-10-30T00:56:32;101070.94;;;20.93;63.36
5812;BME280;2932;52.400;9.558;2022-10-30T00:59:03;101067.72;;;21.02;63.04
5812;BME280;2932;52.400;9.558;2022-10-30T01:01:33;101068.13;;;21.00;63.00
5812;BME280;2932;52.400;9.558;2022-10-30T01:04:01;101060.88;;;21.10;62.65
5812;BME280;2932;52.400;9.558;2022-10-30T01:06:28;101067.28;;;21.14;62.98
5812;BME280;2932;52.400;9.558;2022-10-30T01:08:57;101064.00;;;21.33;61.99
5812;BME280;2932;52.400;9.558;2022-10-30T01:11:22;101060.84;;;21.13;62.56
5812;BME280;2932;52.400;9.558;2022-10-30T01:13:49;101058.03;;;21.13;62.91
5812;BME280;2932;52.400;9.558;2022-10-30T01:32:05;101067.31;;;21.07;62.27
5812;BME280;2932;52.400;9.558;2022-10-30T01:34:44;101058.44;;;21.15;61.60
5812;BME280;2932;52.400;9.558;2022-10-30T01:37:54;101060.06;;;21.09;61.99
5812;BME280;2932;52.400;9.558;2022-10-30T01:40:21;101053.63;;;21.09;61.34
5812;BME280;2932;52.400;9.558;2022-10-30T01:42:47;101054.78;;;21.22;61.26
5812;BME280;2932;52.400;9.558;2022-10-30T01:50:58;101052.00;;;21.11;61.34
5812;BME280;2932;52.400;9.558;2022-10-30T01:59:10;101065.53;;;21.52;62.26
5812;BME280;2932;52.400;9.558;2022-10-30T02:01:38;101068.00;;;21.39;62.86
5812;BME280;2932;52.400;9.558;2022-10-30T02:04:04;101071.22;;;21.34;63.50
5812;BME280;2932;52.400;9.558;2022-10-30T02:06:30;101066.84;;;21.22;63.52
5812;BME280;2932;52.400;9.558;2022-10-30T02:08:55;101077.69;;;21.20;63.74
5812;BME280;2932;52.400;9.558;2022-10-30T02:11:22;101070.56;;;20.87;64.41
5812;BME280;2932;52.400;9.558;2022-10-30T02:13:51;101073.75;;;21.04;64.13
5812;BME280;2932;52.400;9.558;2022-10-30T02:16:18;101070.94;;;21.00;63.71
5812;BME280;2932;52.400;9.558;2022-10-30T02:18:44;101076.97;;;20.91;63.49
5812;BME280;2932;52.400;9.558;2022-10-30T02:21:09;101070.56;;;20.80;64.07
5812;BME280;2932;52.400;9.558;2022-10-30T02:23:34;101075.00;;;20.81;64.66
5812;BME280;2932;52.400;9.558;2022-10-30T02:26:00;101076.19;;;20.87;64.67
5812;BME280;2932;52.400;9.558;2022-10-30T02:28:25;101079.47;;;20.47;66.08
5812;BME280;2932;52.400;9.558;2022-10-30T02:30:50;101077.84;;;20.35;65.84
5812;BME280;2932;52.400;9.558;2022-10-30T02:33:16;101066.22;;;20.54;66.11
5812;BME280;2932;52.400;9.558;2022-10-30T02:35:41;101072.97;;;20.92;64.70
5812;BME280;2932;52.400;9.558;2022-10-30T02:38:06;101071.03;;;20.54;65.72
5812;BME280;2932;52.400;9.558;2022-10-30T02:40:32;101071.44;;;20.49;65.44
5812;BME280;2932;52.400;9.558;2022-10-30T02:42:57;101074.25;;;20.45;65.75
5812;BME280;2932;52.400;9.558;2022-10-30T02:45:23;101077.03;;;20.35;65.83
5812;BME280;2932;52.400;9.558;2022-10-30T02:47:49;101079.03;;;20.73;64.85
5812;BME280;2932;52.400;9.558;2022-10-30T02:50:14;101074.25;;;20.42;65.77
5812;BME280;2932;52.400;9.558;2022-10-30T02:52:39;101084.31;;;20.39;66.31
5812;BME280;2932;52.400;9.558;2022-10-30T02:55:05;101077.44;;;20.40;66.27
5812;BME280;2932;52.400;9.558;2022-10-30T02:57:30;101082.66;;;20.42;66.33
5812;BME280;2932;52.400;9.558;2022-10-30T02:59:56;101081.47;;;20.28;66.65
5812;BME280;2932;52.400;9.558;2022-10-30T03:02:21;101073.44;;;20.30;66.58
5812;BME280;2932;52.400;9.558;2022-10-30T03:04:46;101075.84;;;20.28;66.17
5812;BME280;2932;52.400;9.558;2022-10-30T03:07:12;101072.63;;;20.30;66.11
5812;BME280;2932;52.400;9.558;2022-10-30T03:09:37;101078.25;;;20.26;66.16
5812;BME280;2932;52.400;9.558;2022-10-30T03:12:03;101077.03;;;20.20;66.11
5812;BME280;2932;52.400;9.558;2022-10-30T03:14:28;101070.22;;;20.25;66.32
5812;BME280;2932;52.400;9.558;2022-10-30T03:16:53;101078.25;;;20.26;66.61
5812;BME280;2932;52.400;9.558;2022-10-30T03:19:19;101074.22;;;20.17;66.71
5812;BME280;2932;52.400;9.558;2022-10-30T03:21:44;101083.84;;;20.19;66.87
5812;BME280;2932;52.400;9.558;2022-10-30T03:24:10;101085.47;;;20.24;66.91
5812;BME280;2932;52.400;9.558;2022-10-30T03:26:35;101090.72;;;20.57;65.75
5812;BME280;2932;52.400;9.558;2022-10-30T03:29:00;101089.06;;;20.21;66.41
5812;BME280;2932;52.400;9.558;2022-10-30T03:31:26;101082.66;;;20.17;67.13
5812;BME280;2932;52.400;9.558;2022-10-30T03:33:51;101079.81;;;20.06;66.35
5812;BME280;2932;52.400;9.558;2022-10-30T03:36:17;101078.22;;;20.09;66.28
5812;BME280;2932;52.400;9.558;2022-10-30T03:38:42;101084.25;;;20.07;66.39
5812;BME280;2932;52.400;9.558;2022-10-30T03:41:07;101085.03;;;20.08;66.81
5812;BME280;2932;52.400;9.558;2022-10-30T03:43:33;101077.81;;;20.10;66.99
5812;BME280;2932;52.400;9.558;2022-10-30T03:45:58;101081.41;;;20.00;66.89
5812;BME280;2932;52.400;9.558;2022-10-30T03:48:25;101074.22;;;19.99;66.95
5812;BME280;2932;52.400;9.558;2022-10-30T03:50:52;101087.03;;;20.04;66.94
5812;BME280;2932;52.400;9.558;2022-10-30T03:53:18;101083.81;;;20.02;66.25
5812;BME280;2932;52.400;9.558;2022-10-30T03:55:43;101089.84;;;19.89;66.13
5812;BME280;2932;52.400;9.558;2022-10-30T03:58:08;101087.03;;;19.89;66.50
5812;BME280;2932;52.400;9.558;2022-10-30T04:00:34;101082.63;;;19.92;66.91
5812;BME280;2932;52.400;9.558;2022-10-30T04:03:00;101079.81;;;19.92;66.21
5812;BME280;2932;52.400;9.558;2022-10-30T04:05:27;101092.25;;;19.84;66.10
5812;BME280;2932;52.400;9.558;2022-10-30T04:07:57;101084.19;;;19.79;66.57
5812;BME280;2932;52.400;9.558;2022-10-30T04:10:23;101083.81;;;19.84;66.62
5812;BME280;2932;52.400;9.558;2022-10-30T04:12:48;101079.41;;;19.83;66.64
5812;BME280;2932;52.400;9.558;2022-10-30T04:15:14;101083.44;;;19.89;66.83
5812;BME280;2932;52.400;9.558;2022-10-30T04:17:39;101081.41;;;19.79;66.93
5812;BME280;2932;52.400;9.558;2022-10-30T04:20:05;101084.63;;;19.88;66.46
5812;BME280;2932;52.400;9.558;2022-10-30T04:22:31;101083.84;;;20.19;65.04
5812;BME280;2932;52.400;9.558;2022-10-30T04:24:57;101080.25;;;20.22;64.99
5812;BME280;2932;52.400;9.558;2022-10-30T04:27:22;101080.25;;;20.15;65.30
5812;BME280;2932;52.400;9.558;2022-10-30T04:29:47;101088.19;;;19.74;66.10
5812;BME280;2932;52.400;9.558;2022-10-30T04:32:13;101084.56;;;19.67;66.88
5812;BME280;2932;52.400;9.558;2022-10-30T04:34:38;101083.78;;;19.70;67.00
5812;BME280;2932;52.400;9.558;2022-10-30T04:37:04;101081.75;;;19.67;67.35
5812;BME280;2932;52.400;9.558;2022-10-30T04:39:30;101084.16;;;19.64;67.57
5812;BME280;2932;52.400;9.558;2022-10-30T04:41:56;101081.72;;;19.59;67.59
5812;BME280;2932;52.400;9.558;2022-10-30T04:44:21;101079.00;;;19.88;66.51
5812;BME280;2932;52.400;9.558;2022-10-30T04:46:46;101077.41;;;20.05;65.62
5812;BME280;2932;52.400;9.558;2022-10-30T04:49:12;101075.31;;;19.62;67.08
5812;BME280;2932;52.400;9.558;2022-10-30T04:51:37;101080.53;;;19.60;67.25
5812;BME280;2932;52.400;9.558;2022-10-30T04:54:02;101082.97;;;19.58;67.40
5812;BME280;2932;52.400;9.558;2022-10-30T04:56:28;101078.53;;;19.57;67.52
5812;BME280;2932;52.400;9.558;2022-10-30T04:58:53;101064.47;;;19.50;67.49
5812;BME280;2932;52.400;9.558;2022-10-30T05:01:18;101075.72;;;19.54;67.36
5812;BME280;2932;52.400;9.558;2022-10-30T05:03:43;101077.25;;;19.44;67.66
5812;BME280;2932;52.400;9.558;2022-10-30T05:06:22;101066.41;;;19.36;67.39
5812;BME280;2932;52.400;9.558;2022-10-30T05:08:49;101070.38;;;19.31;67.43
5812;BME280;2932;52.400;9.558;2022-10-30T05:11:15;101070.41;;;19.38;67.37
5812;BME280;2932;52.400;9.558;2022-10-30T05:13:40;101075.25;;;19.41;67.52
5812;BME280;2932;52.400;9.558;2022-10-30T05:16:06;101072.84;;;19.43;67.55
5812;BME280;2932;52.400;9.558;2022-10-30T05:18:31;101075.28;;;19.48;67.58
5812;BME280;2932;52.400;9.558;2022-10-30T05:20:57;101074.00;;;19.35;68.03
5812;BME280;2932;52.400;9.558;2022-10-30T05:23:22;101084.00;;;19.29;68.30
5812;BME280;2932;52.400;9.558;2022-10-30T05:25:48;101084.00;;;19.29;68.29
5812;BME280;2932;52.400;9.558;2022-10-30T05:28:13;101081.63;;;19.31;67.94
5812;BME280;2932;52.400;9.558;2022-10-30T05:30:39;101089.97;;;19.17;67.10
5812;BME280;2932;52.400;9.558;2022-10-30T05:33:08;101075.56;;;19.22;67.53
5812;BME280;2932;52.400;9.558;2022-10-30T05:35:34;101081.75;;;19.67;66.19
5812;BME280;2932;52.400;9.558;2022-10-30T05:38:01;101084.97;;;19.65;66.14
5812;BME280;2932;52.400;9.558;2022-10-30T05:40:28;101089.69;;;19.43;67.14
5812;BME280;2932;52.400;9.558;2022-10-30T05:42:53;101083.66;;;19.38;67.35
5812;BME280;2932;52.400;9.558;2022-10-30T05:45:19;101089.63;;;19.29;67.96
5812;BME280;2932;52.400;9.558;2022-10-30T05:47:56;101091.97;;;19.20;68.05
5812;BME280;2932;52.400;9.558;2022-10-30T05:50:22;101093.97;;;19.16;68.15
5812;BME280;2932;52.400;9.558;2022-10-30T05:52:48;101098.75;;;19.08;68.42
5812;BME280;2932;52.400;9.558;2022-10-30T05:55:13;101095.59;;;19.17;68.19
5812;BME280;2932;52.400;9.558;2022-10-30T05:57:39;101098.94;;;19.47;67.63
5812;BME280;2932;52.400;9.558;2022-10-30T06:00:05;101092.03;;;19.30;67.82
5812;BME280;2932;52.400;9.558;2022-10-30T06:02:31;101091.38;;;19.62;67.09
5812;BME280;2932;52.400;9.558;2022-10-30T06:04:57;101090.03;;;19.35;67.89
5812;BME280;2932;52.400;9.558;2022-10-30T06:07:22;101088.00;;;19.24;68.11
5812;BME280;2932;52.400;9.558;2022-10-30T06:09:47;101085.69;;;19.44;68.18
5812;BME280;2932;52.400;9.558;2022-10-30T06:12:13;101096.88;;;19.37;68.36
5812;BME280;2932;52.400;9.558;2022-10-30T06:14:38;101097.38;;;19.53;67.51
5812;BME280;2932;52.400;9.558;2022-10-30T06:17:03;101100.41;;;19.16;68.21
5812;BME280;2932;52.400;9.558;2022-10-30T06:19:29;101106.00;;;19.13;68.56
5812;BME280;2932;52.400;9.558;2022-10-30T06:21:54;101114.66;;;19.59;67.44
5812;BME280;2932;52.400;9.558;2022-10-30T06:24:19;101109.03;;;19.59;67.25
5812;BME280;2932;52.400;9.558;2022-10-30T06:26:45;101117.75;;;19.43;67.76
5812;BME280;2932;52.400;9.558;2022-10-30T06:29:10;101126.19;;;19.50;67.81
5812;BME280;2932;52.400;9.558;2022-10-30T06:31:35;101125.75;;;19.41;67.84
5812;BME280;2932;52.400;9.558;2022-10-30T06:34:01;101123.44;;;19.54;67.70
5812;BME280;2932;52.400;9.558;2022-10-30T06:36:26;101131.88;;;19.54;67.67
5812;BME280;2932;52.400;9.558;2022-10-30T06:38:51;101128.25;;;19.53;67.26
5812;BME280;2932;52.400;9.558;2022-10-30T06:41:17;101143.00;;;19.40;67.69
5812;BME280;2932;52.400;9.558;2022-10-30T06:43:42;101137.28;;;19.22;68.04
5812;BME280;2932;52.400;9.558;2022-10-30T06:46:07;101138.41;;;19.07;68.72
5812;BME280;2932;52.400;9.558;2022-10-30T06:48:33;101137.13;;;18.97;69.07
5812;BME280;2932;52.400;9.558;2022-10-30T06:50:59;101142.34;;;18.98;68.45
5812;BME280;2932;52.400;9.558;2022-10-30T06:53:27;101143.63;;;19.08;68.56
5812;BME280;2932;52.400;9.558;2022-10-30T06:56:00;101144.06;;;19.14;68.67
5812;BME280;2932;52.400;9.558;2022-10-30T06:58:26;101146.09;;;19.24;68.35
5812;BME280;2932;52.400;9.558;2022-10-30T07:00:52;101149.38;;;19.33;68.18
5812;BME280;2932;52.400;9.558;2022-10-30T07:03:18;101147.38;;;19.37;68.11
5812;BME280;2932;52.400;9.558;2022-10-30T07:05:44;101145.41;;;19.41;67.99
5812;BME280;2932;52.400;9.558;2022-10-30T07:08:10;101144.63;;;19.44;68.01
5812;BME280;2932;52.400;9.558;2022-10-30T07:10:35;101143.41;;;19.45;67.76
5812;BME280;2932;52.400;9.558;2022-10-30T07:13:00;101145.44;;;19.48;67.44
5812;BME280;2932;52.400;9.558;2022-10-30T07:15:26;101145.03;;;19.50;67.50
5812;BME280;2932;52.400;9.558;2022-10-30T07:20:18;101150.66;;;19.50;68.16
5812;BME280;2932;52.400;9.558;2022-10-30T07:22:44;101148.63;;;19.47;67.58
5812;BME280;2932;52.400;9.558;2022-10-30T07:25:09;101152.22;;;19.44;67.12
5812;BME280;2932;52.400;9.558;2022-10-30T07:27:43;101147.00;;;19.42;67.42
5812;BME280;2932;52.400;9.558;2022-10-30T07:30:11;101147.50;;;19.51;67.51
5812;BME280;2932;52.400;9.558;2022-10-30T07:32:36;101153.16;;;19.58;67.15
5812;BME280;2932;52.400;9.558;2022-10-30T07:35:02;101151.16;;;19.73;67.06
5812;BME280;2932;52.400;9.558;2022-10-30T07:37:30;101154.81;;;19.81;66.59
5812;BME280;2932;52.400;9.558;2022-10-30T07:39:56;101153.25;;;19.90;66.54
5812;BME280;2932;52.400;9.558;2022-10-30T07:42:21;101154.84;;;20.02;66.54
5812;BME280;2932;52.400;9.558;2022-10-30T07:44:46;101152.16;;;20.66;65.00
5812;BME280;2932;52.400;9.558;2022-10-30T07:47:12;101154.53;;;20.85;64.15
5812;BME280;2932;52.400;9.558;2022-10-30T07:49:37;101148.53;;;20.58;65.15
5812;BME280;2932;52.400;9.558;2022-10-30T07:52:02;101147.75;;;20.72;65.40
5812;BME280;2932;52.400;9.558;2022-10-30T07:54:28;101139.66;;;20.92;65.20
5812;BME280;2932;52.400;9.558;2022-10-30T07:56:53;101151.69;;;21.14;65.00
5812;BME280;2932;52.400;9.558;2022-10-30T07:59:19;101150.47;;;21.25;64.64
5812;BME280;2932;52.400;9.558;2022-10-30T08:01:44;101154.88;;;21.41;64.10
5812;BME280;2932;52.400;9.558;2022-10-30T08:04:09;101154.03;;;21.51;63.83
5812;BME280;2932;52.400;9.558;2022-10-30T08:06:38;101149.13;;;21.66;63.72
5812;BME280;2932;52.400;9.558;2022-10-30T08:09:04;101158.31;;;21.80;62.92
5812;BME280;2932;52.400;9.558;2022-10-30T08:11:29;101153.44;;;21.88;62.82
5812;BME280;2932;52.400;9.558;2022-10-30T08:13:54;101152.16;;;22.03;62.49
5812;BME280;2932;52.400;9.558;2022-10-30T08:16:20;101149.25;;;22.21;62.19
5812;BME280;2932;52.400;9.558;2022-10-30T08:18:45;101147.84;;;22.47;61.60
5812;BME280;2932;52.400;9.558;2022-10-30T08:21:11;101154.53;;;22.67;61.30
5812;BME280;2932;52.400;9.558;2022-10-30T08:23:36;101164.94;;;22.77;60.61
5812;BME280;2932;52.400;9.558;2022-10-30T08:26:02;101165.91;;;23.05;60.45
5812;BME280;2932;52.400;9.558;2022-10-30T08:28:27;101160.88;;;23.19;60.03
5812;BME280;2932;52.400;9.558;2022-10-30T08:30:53;101160.81;;;23.26;58.84
5812;BME280;2932;52.400;9.558;2022-10-30T08:33:18;101165.56;;;23.37;58.57
5812;BME280;2932;52.400;9.558;2022-10-30T08:35:54;101165.91;;;23.42;58.59
5812;BME280;2932;52.400;9.558;2022-10-30T08:38:24;101159.34;;;23.52;58.17
5812;BME280;2932;52.400;9.558;2022-10-30T08:40:50;101166.41;;;23.68;57.91
5812;BME280;2932;52.400;9.558;2022-10-30T08:43:15;101167.59;;;23.70;57.59
5812;BME280;2932;52.400;9.558;2022-10-30T08:45:41;101167.56;;;23.74;57.38
5812;BME280;2932;52.400;9.558;2022-10-30T08:48:09;101172.66;;;23.86;57.14
5812;BME280;2932;52.400;9.558;2022-10-30T08:50:35;101171.63;;;24.00;56.77
5812;BME280;2932;52.400;9.558;2022-10-30T08:53:02;101169.47;;;24.11;56.37
5812;BME280;2932;52.400;9.558;2022-10-30T08:55:32;101170.59;;;24.17;56.41
5812;BME280;2932;52.400;9.558;2022-10-30T08:57:57;101165.47;;;24.08;56.24
5812;BME280;2932;52.400;9.558;2022-10-30T09:00:23;101170.38;;;24.04;56.68
5812;BME280;2932;52.400;9.558;2022-10-30T09:02:49;101178.47;;;24.02;56.48
5812;BME280;2932;52.400;9.558;2022-10-30T09:05:14;101172.25;;;24.14;56.29
5812;BME280;2932;52.400;9.558;2022-10-30T09:07:40;101175.22;;;24.34;56.52
5812;BME280;2932;52.400;9.558;2022-10-30T09:10:05;101172.91;;;24.52;55.91
5812;BME280;2932;52.400;9.558;2022-10-30T09:12:31;101181.97;;;24.90;55.47
5812;BME280;2932;52.400;9.558;2022-10-30T09:14:56;101181.31;;;25.06;55.53
5812;BME280;2932;52.400;9.558;2022-10-30T09:17:22;101180.84;;;25.31;54.67
5812;BME280;2932;52.400;9.558;2022-10-30T09:19:47;101189.31;;;25.74;53.19
5812;BME280;2932;52.400;9.558;2022-10-30T09:22:12;101181.25;;;25.73;52.90
5812;BME280;2932;52.400;9.558;2022-10-30T09:24:37;101177.97;;;25.54;53.21
5812;BME280;2932;52.400;9.558;2022-10-30T09:27:04;101187.84;;;25.86;53.02
5812;BME280;2932;52.400;9.558;2022-10-30T09:29:30;101183.63;;;25.94;53.13
5812;BME280;2932;52.400;9.558;2022-10-30T09:31:56;101186.28;;;26.01;53.16
5812;BME280;2932;52.400;9.558;2022-10-30T09:34:21;101191.13;;;26.20;52.05
5812;BME280;2932;52.400;9.558;2022-10-30T09:36:47;101188.03;;;26.15;52.57
5812;BME280;2932;52.400;9.558;2022-10-30T09:39:13;101183.59;;;26.14;52.41
5812;BME280;2932;52.400;9.558;2022-10-30T10:00:43;101177.44;;;25.99;52.33
5812;BME280;2932;52.400;9.558;2022-10-30T10:05:58;101174.97;;;26.37;52.60
5812;BME280;2932;52.400;9.558;2022-10-30T10:08:32;101173.72;;;26.54;51.16
5812;BME280;2932;52.400;9.558;2022-10-30T10:11:08;101183.94;;;26.68;51.19
5812;BME280;2932;52.400;9.558;2022-10-30T10:13:38;101181.97;;;26.81;50.98
5812;BME280;2932;52.400;9.558;2022-10-30T10:16:16;101187.22;;;26.83;50.18
5812;BME280;2932;52.400;9.558;2022-10-30T10:18:46;101180.28;;;27.16;50.59
5812;BME280;2932;52.400;9.558;2022-10-30T10:21:20;101173.06;;;27.57;49.74
5812;BME280;2932;52.400;9.558;2022-10-30T10:23:47;101177.00;;;27.76;49.13
5812;BME280;2932;52.400;9.558;2022-10-30T10:26:45;101176.22;;;27.88;49.46
5812;BME280;2932;52.400;9.558;2022-10-30T10:29:27;101169.13;;;28.21;48.65
5812;BME280;2932;52.400;9.558;2022-10-30T10:42:11;101163.44;;;28.34;48.75
5812;BME280;2932;52.400;9.558;2022-10-30T10:50:35;101146.03;;;29.70;45.45
5812;BME280;2932;52.400;9.558;2022-10-30T10:55:33;101137.13;;;29.90;45.75
5812;BME280;2932;52.400;9.558;2022-10-30T10:58:06;101132.88;;;29.95;44.71
5812;BME280;2932;52.400;9.558;2022-10-30T11:00:34;101129.50;;;29.56;44.77
5812;BME280;2932;52.400;9.558;2022-10-30T11:08:05;101125.94;;;30.05;44.62
5812;BME280;2932;52.400;9.558;2022-10-30T11:10:34;101116.50;;;30.66;43.55
5812;BME280;2932;52.400;9.558;2022-10-30T11:12:59;101116.38;;;30.79;43.02
5812;BME280;2932;52.400;9.558;2022-10-30T11:15:43;101121.28;;;32.12;41.65
5812;BME280;2932;52.400;9.558;2022-10-30T11:18:10;101118.88;;;33.00;40.31
5812;BME280;2932;52.400;9.558;2022-10-30T11:23:41;101119.97;;;33.56;39.12
5812;BME280;2932;52.400;9.558;2022-10-30T11:36:41;101107.03;;;36.04;36.98
5812;BME280;2932;52.400;9.558;2022-10-30T11:41:49;101101.66;;;37.31;35.05
5812;BME280;2932;52.400;9.558;2022-10-30T11:44:19;101096.22;;;37.89;34.26
5812;BME280;2932;52.400;9.558;2022-10-30T11:46:45;101095.94;;;38.15;34.91
5812;BME280;2932;52.400;9.558;2022-10-30T11:49:30;101082.38;;;38.79;33.19
5812;BME280;2932;52.400;9.558;2022-10-30T11:51:59;101084.06;;;39.10;32.61
5812;BME280;2932;52.400;9.558;2022-10-30T11:54:25;101087.66;;;39.98;32.13
5812;BME280;2932;52.400;9.558;2022-10-30T11:56:51;101086.19;;;39.80;31.88
5812;BME280;2932;52.400;9.558;2022-10-30T11:59:19;101087.09;;;39.28;32.75
5812;BME280;2932;52.400;9.558;2022-10-30T12:02:00;101082.94;;;39.95;32.07
5812;BME280;2932;52.400;9.558;2022-10-30T12:04:27;101078.25;;;40.84;31.40
5812;BME280;2932;52.400;9.558;2022-10-30T12:07:17;101081.13;;;41.40;30.41
5812;BME280;2932;52.400;9.558;2022-10-30T12:09:46;101067.72;;;42.14;30.36
5812;BME280;2932;52.400;9.558;2022-10-30T12:12:21;101071.75;;;42.11;30.13
5812;BME280;2932;52.400;9.558;2022-10-30T12:14:51;101063.38;;;42.34;29.61
5812;BME280;2932;52.400;9.558;2022-10-30T12:17:17;101067.72;;;42.41;29.72
5812;BME280;2932;52.400;9.558;2022-10-30T12:19:51;101059.78;;;42.68;29.50
5812;BME280;2932;52.400;9.558;2022-10-30T12:22:28;101059.13;;;42.62;29.67
5812;BME280;2932;52.400;9.558;2022-10-30T12:24:55;101057.19;;;42.90;29.45
5812;BME280;2932;52.400;9.558;2022-10-30T12:27:21;101058.34;;;42.35;30.12
5812;BME280;2932;52.400;9.558;2022-10-30T12:30:06;101044.94;;;41.73;30.19
5812;BME280;2932;52.400;9.558;2022-10-30T12:32:42;101049.53;;;41.82;30.15
5812;BME280;2932;52.400;9.558;2022-10-30T12:35:15;101051.19;;;41.64;30.58
5812;BME280;2932;52.400;9.558;2022-10-30T12:37:42;101048.22;;;41.83;30.35
5812;BME280;2932;52.400;9.558;2022-10-30T12:40:22;101050.81;;;42.39;30.20
5812;BME280;2932;52.400;9.558;2022-10-30T12:45:36;101050.66;;;43.32;29.09
5812;BME280;2932;52.400;9.558;2022-10-30T12:48:21;101046.63;;;43.76;29.14
5812;BME280;2932;52.400;9.558;2022-10-30T12:55:54;101040.56;;;44.52;27.68
5812;BME280;2932;52.400;9.558;2022-10-30T12:58:32;101040.81;;;43.76;28.64
5812;BME280;2932;52.400;9.558;2022-10-30T13:01:06;101047.66;;;42.90;29.01
5812;BME280;2932;52.400;9.558;2022-10-30T13:03:57;101039.34;;;42.81;29.41
5812;BME280;2932;52.400;9.558;2022-10-30T13:06:27;101041.38;;;43.54;28.44
5812;BME280;2932;52.400;9.558;2022-10-30T13:11:35;101045.63;;;43.95;28.07
5812;BME280;2932;52.400;9.558;2022-10-30T13:14:10;101042.13;;;44.53;27.49
5812;BME280;2932;52.400;9.558;2022-10-30T13:16:37;101050.91;;;44.25;28.19
5812;BME280;2932;52.400;9.558;2022-10-30T13:19:04;101044.44;;;44.18;28.28
5812;BME280;2932;52.400;9.558;2022-10-30T13:24:13;101037.06;;;43.13;28.96
5812;BME280;2932;52.400;9.558;2022-10-30T13:26:49;101043.34;;;42.17;29.42
5812;BME280;2932;52.400;9.558;2022-10-30T13:29:28;101036.44;;;40.92;30.98
5812;BME280;2932;52.400;9.558;2022-10-30T13:37:45;101030.38;;;38.51;33.34
5812;BME280;2932;52.400;9.558;2022-10-30T13:48:23;101033.38;;;37.00;35.15
5812;BME280;2932;52.400;9.558;2022-10-30T13:51:16;101046.16;;;35.86;36.40
5812;BME280;2932;52.400;9.558;2022-10-30T13:53:50;101045.69;;;35.35;36.99
5812;BME280;2932;52.400;9.558;2022-10-30T13:56:19;101045.66;;;34.63;38.11
5812;BME280;2932;52.400;9.558;2022-10-30T13:58:52;101041.78;;;34.46;38.35
5812;BME280;2932;52.400;9.558;2022-10-30T14:01:55;101036.72;;;35.02;37.68
5812;BME280;2932;52.400;9.558;2022-10-30T14:04:33;101041.97;;;35.03;37.68
5812;BME280;2932;52.400;9.558;2022-10-30T14:07:15;101036.31;;;34.89;38.30
5812;BME280;2932;52.400;9.558;2022-10-30T14:10:00;101037.53;;;34.62;38.25
5812;BME280;2932;52.400;9.558;2022-10-30T14:15:41;101033.38;;;33.58;40.10
5812;BME280;2932;52.400;9.558;2022-10-30T14:20:36;101042.16;;;33.10;40.68
5812;BME280;2932;52.400;9.558;2022-10-30T14:23:12;101040.09;;;33.10;40.76
5812;BME280;2932;52.400;9.558;2022-10-30T14:25:39;101033.34;;;32.99;41.12
5812;BME280;2932;52.400;9.558;2022-10-30T14:28:12;101040.53;;;32.94;41.01
5812;BME280;2932;52.400;9.558;2022-10-30T14:30:43;101034.31;;;32.96;40.75
5812;BME280;2932;52.400;9.558;2022-10-30T14:33:32;101035.03;;;33.05;40.77
5812;BME280;2932;52.400;9.558;2022-10-30T14:38:59;101031.00;;;32.73;41.52
5812;BME280;2932;52.400;9.558;2022-10-30T14:44:20;101024.16;;;33.24;40.75
5812;BME280;2932;52.400;9.558;2022-10-30T14:49:54;101017.00;;;32.52;41.34
5812;BME280;2932;52.400;9.558;2022-10-30T15:00:39;101017.94;;;32.01;42.69
5812;BME280;2932;52.400;9.558;2022-10-30T15:05:53;101026.78;;;31.28;43.61
5812;BME280;2932;52.400;9.558;2022-10-30T15:13:49;101028.47;;;30.15;46.21
5812;BME280;2932;52.400;9.558;2022-10-30T15:16:18;101030.09;;;29.85;46.63
5812;BME280;2932;52.400;9.558;2022-10-30T15:18:46;101032.69;;;29.62;47.06
5812;BME280;2932;52.400;9.558;2022-10-30T15:21:19;101037.75;;;29.36;47.70
5812;BME280;2932;52.400;9.558;2022-10-30T15:23:47;101031.47;;;28.97;48.25
5812;BME280;2932;52.400;9.558;2022-10-30T15:26:21;101036.66;;;28.42;49.57
5812;BME280;2932;52.400;9.558;2022-10-30T15:28:49;101031.47;;;28.15;49.71
5812;BME280;2932;52.400;9.558;2022-10-30T15:31:19;101034.25;;;27.94;50.21
5812;BME280;2932;52.400;9.558;2022-10-30T15:33:45;101026.91;;;28.18;49.97
5812;BME280;2932;52.400;9.558;2022-10-30T15:36:20;101034.78;;;28.14;50.52
5812;BME280;2932;52.400;9.558;2022-10-30T15:39:05;101038.75;;;27.53;51.38
5812;BME280;2932;52.400;9.558;2022-10-30T15:41:34;101045.66;;;26.98;52.94
5812;BME280;2932;52.400;9.558;2022-10-30T15:44:02;101048.16;;;26.96;53.34
5812;BME280;2932;52.400;9.558;2022-10-30T15:46:27;101032.94;;;26.73;53.72